ACA92 SCEL-SAEZ
Flight info
| Callsign | ACA92 |
|---|---|
| Flight time | 1h 20m |
| Altitude | 41000 |
| Route | ALBAL7C ALBAL UM424 ASADA ASADA7U |
| Aircraft | B788/H-SDE1E2E3FGHIJ2J3J4J5M1RWXY/LB1D1 |
Departure
| Time | 2026-04-30 19:15 |
|---|---|
| Airport | Comodoro Arturo Merino Benítez International Airport (SCEL) |
Arrival
| Time | 2026-04-30 20:35 |
|---|---|
| Airport | Ezeiza International Airport - Ministro Pistarini (SAEZ) |
| Time | Latitude | Longitude | Altitude | Speed | Heading |
|---|---|---|---|---|---|
| 2026-04-30 18:03 | -33.40052 | -70.78959 | 1570 ft | 0 kts | 357° |
| 2026-04-30 19:02 | -33.40058 | -70.78959 | 1570 ft | 4 kts | 359° |
| 2026-04-30 19:02 | -33.40106 | -70.78978 | 1570 ft | 4 kts | 45° |
| 2026-04-30 19:03 | -33.40120 | -70.79023 | 1570 ft | 0 kts | 87° |
| 2026-04-30 19:06 | -33.40119 | -70.79007 | 1570 ft | 4 kts | 87° |
| 2026-04-30 19:06 | -33.40117 | -70.78958 | 1570 ft | 7 kts | 87° |
| 2026-04-30 19:06 | -33.40057 | -70.78865 | 1570 ft | 9 kts | 2° |
| 2026-04-30 19:07 | -33.39914 | -70.78837 | 1570 ft | 11 kts | 26° |
| 2026-04-30 19:07 | -33.39840 | -70.78790 | 1570 ft | 12 kts | 28° |
| 2026-04-30 19:08 | -33.39665 | -70.78778 | 1570 ft | 14 kts | 357° |
| 2026-04-30 19:08 | -33.39465 | -70.78788 | 1570 ft | 15 kts | 357° |
| 2026-04-30 19:08 | -33.39355 | -70.78794 | 1570 ft | 16 kts | 358° |
| 2026-04-30 19:09 | -33.39109 | -70.78808 | 1570 ft | 19 kts | 357° |
| 2026-04-30 19:09 | -33.38974 | -70.78815 | 1570 ft | 20 kts | 358° |
| 2026-04-30 19:09 | -33.38837 | -70.78821 | 1570 ft | 20 kts | 357° |
| 2026-04-30 19:10 | -33.38573 | -70.78837 | 1570 ft | 18 kts | 357° |
| 2026-04-30 19:10 | -33.38327 | -70.78848 | 1570 ft | 17 kts | 357° |
| 2026-04-30 19:11 | -33.38212 | -70.78854 | 1570 ft | 17 kts | 358° |
| 2026-04-30 19:11 | -33.37986 | -70.78866 | 1570 ft | 16 kts | 357° |
| 2026-04-30 19:11 | -33.37878 | -70.78872 | 1570 ft | 15 kts | 357° |
| 2026-04-30 19:12 | -33.37771 | -70.78878 | 1570 ft | 15 kts | 357° |
| 2026-04-30 19:12 | -33.37675 | -70.78882 | 1570 ft | 11 kts | 7° |
| 2026-04-30 19:12 | -33.37629 | -70.78829 | 1570 ft | 9 kts | 76° |
| 2026-04-30 19:13 | -33.37626 | -70.78688 | 1570 ft | 5 kts | 125° |
| 2026-04-30 19:13 | -33.37671 | -70.78668 | 1571 ft | 0 kts | 176° |
| 2026-04-30 19:13 | -33.37675 | -70.78668 | 1571 ft | 3 kts | 176° |
| 2026-04-30 19:14 | -33.37707 | -70.78665 | 1571 ft | 15 kts | 176° |
| 2026-04-30 19:14 | -33.38015 | -70.78649 | 1570 ft | 75 kts | 177° |
| 2026-04-30 19:14 | -33.38746 | -70.78610 | 1570 ft | 133 kts | 177° |
| 2026-04-30 19:14 | -33.39836 | -70.78549 | 1630 ft | 175 kts | 175° |
| 2026-04-30 19:15 | -33.41007 | -70.78422 | 2501 ft | 167 kts | 171° |
| 2026-04-30 19:15 | -33.43433 | -70.78305 | 4014 ft | 179 kts | 181° |
| 2026-04-30 19:15 | -33.44691 | -70.78266 | 4692 ft | 186 kts | 176° |
| 2026-04-30 19:16 | -33.45978 | -70.78147 | 5459 ft | 190 kts | 175° |
| 2026-04-30 19:16 | -33.47390 | -70.78044 | 5844 ft | 217 kts | 178° |
| 2026-04-30 19:16 | -33.50817 | -70.77894 | 6525 ft | 275 kts | 177° |
| 2026-04-30 19:17 | -33.52785 | -70.77766 | 7213 ft | 285 kts | 176° |
| 2026-04-30 19:17 | -33.56109 | -70.77563 | 8689 ft | 291 kts | 177° |
| 2026-04-30 19:17 | -33.58186 | -70.77437 | 9173 ft | 306 kts | 176° |
| 2026-04-30 19:18 | -33.61709 | -70.77216 | 10426 ft | 303 kts | 177° |
| 2026-04-30 19:18 | -33.64659 | -70.77039 | 10688 ft | 339 kts | 178° |
| 2026-04-30 19:18 | -33.67117 | -70.76891 | 10797 ft | 367 kts | 178° |
| 2026-04-30 19:19 | -33.69716 | -70.76728 | 11450 ft | 373 kts | 178° |
| 2026-04-30 19:19 | -33.72323 | -70.76564 | 12195 ft | 378 kts | 179° |
| 2026-04-30 19:19 | -33.77649 | -70.76236 | 13636 ft | 387 kts | 177° |
| 2026-04-30 19:20 | -33.80281 | -70.75473 | 14310 ft | 396 kts | 158° |
| 2026-04-30 19:20 | -33.82608 | -70.73749 | 15000 ft | 403 kts | 140° |
| 2026-04-30 19:20 | -33.85728 | -70.68061 | 16184 ft | 414 kts | 115° |
| 2026-04-30 19:21 | -33.86914 | -70.64921 | 16764 ft | 419 kts | 114° |
| 2026-04-30 19:21 | -33.89345 | -70.58475 | 17920 ft | 427 kts | 115° |
| 2026-04-30 19:22 | -33.91858 | -70.51937 | 19016 ft | 434 kts | 115° |
| 2026-04-30 19:22 | -33.95685 | -70.41854 | 20487 ft | 449 kts | 115° |
| 2026-04-30 19:23 | -33.99622 | -70.31471 | 21768 ft | 461 kts | 115° |
| 2026-04-30 19:24 | -34.02305 | -70.24380 | 22533 ft | 468 kts | 115° |
| 2026-04-30 19:24 | -34.03640 | -70.20845 | 22926 ft | 471 kts | 115° |
| 2026-04-30 19:24 | -34.06370 | -70.13595 | 23718 ft | 477 kts | 115° |
| 2026-04-30 19:25 | -34.10532 | -70.02527 | 24742 ft | 487 kts | 115° |
| 2026-04-30 19:26 | -34.13342 | -69.95029 | 25433 ft | 493 kts | 115° |
| 2026-04-30 19:26 | -34.16175 | -69.87452 | 26140 ft | 497 kts | 115° |
| 2026-04-30 19:26 | -34.17577 | -69.83680 | 26502 ft | 500 kts | 112° |
| 2026-04-30 19:27 | -34.19213 | -69.75516 | 27067 ft | 503 kts | 98° |
| 2026-04-30 19:27 | -34.20334 | -69.67124 | 27709 ft | 508 kts | 98° |
| 2026-04-30 19:28 | -34.20930 | -69.62894 | 28014 ft | 511 kts | 98° |
| 2026-04-30 19:28 | -34.22097 | -69.54407 | 28659 ft | 514 kts | 97° |
| 2026-04-30 19:29 | -34.23264 | -69.45829 | 29187 ft | 520 kts | 97° |
| 2026-04-30 19:29 | -34.23854 | -69.41509 | 29491 ft | 521 kts | 97° |
| 2026-04-30 19:30 | -34.25616 | -69.28458 | 30286 ft | 528 kts | 97° |
| 2026-04-30 19:30 | -34.26797 | -69.19664 | 30816 ft | 532 kts | 97° |
| 2026-04-30 19:31 | -34.27974 | -69.10842 | 31327 ft | 536 kts | 97° |
| 2026-04-30 19:31 | -34.28566 | -69.06390 | 31586 ft | 537 kts | 97° |
| 2026-04-30 19:31 | -34.29747 | -68.97429 | 32084 ft | 541 kts | 97° |
| 2026-04-30 19:32 | -34.30332 | -68.92927 | 32325 ft | 543 kts | 97° |
| 2026-04-30 19:32 | -34.30920 | -68.88415 | 32671 ft | 542 kts | 97° |
| 2026-04-30 19:32 | -34.31508 | -68.83913 | 33042 ft | 541 kts | 97° |
| 2026-04-30 19:32 | -34.32091 | -68.79416 | 33394 ft | 540 kts | 97° |
| 2026-04-30 19:33 | -34.32663 | -68.74967 | 33700 ft | 540 kts | 97° |
| 2026-04-30 19:33 | -34.33241 | -68.70482 | 34033 ft | 539 kts | 97° |
| 2026-04-30 19:33 | -34.33818 | -68.66001 | 34355 ft | 539 kts | 97° |
| 2026-04-30 19:33 | -34.34391 | -68.61525 | 34664 ft | 538 kts | 97° |
| 2026-04-30 19:34 | -34.34964 | -68.57041 | 34983 ft | 537 kts | 97° |
| 2026-04-30 19:34 | -34.35532 | -68.52569 | 35240 ft | 538 kts | 97° |
| 2026-04-30 19:34 | -34.36667 | -68.43620 | 35814 ft | 537 kts | 97° |
| 2026-04-30 19:35 | -34.37231 | -68.39151 | 36082 ft | 536 kts | 97° |
| 2026-04-30 19:35 | -34.37791 | -68.34689 | 36322 ft | 537 kts | 97° |
| 2026-04-30 19:35 | -34.38350 | -68.30220 | 36566 ft | 537 kts | 97° |
| 2026-04-30 19:35 | -34.38910 | -68.25751 | 36827 ft | 537 kts | 97° |
| 2026-04-30 19:36 | -34.39467 | -68.21286 | 37158 ft | 534 kts | 97° |
| 2026-04-30 19:36 | -34.40011 | -68.16907 | 37478 ft | 532 kts | 97° |
| 2026-04-30 19:36 | -34.41100 | -68.08092 | 38061 ft | 527 kts | 97° |
| 2026-04-30 19:37 | -34.41642 | -68.03696 | 38237 ft | 528 kts | 97° |
| 2026-04-30 19:37 | -34.42182 | -67.99297 | 38431 ft | 527 kts | 97° |
| 2026-04-30 19:37 | -34.42721 | -67.94896 | 38544 ft | 529 kts | 97° |
| 2026-04-30 19:37 | -34.43261 | -67.90471 | 38685 ft | 531 kts | 97° |
| 2026-04-30 19:38 | -34.43798 | -67.86053 | 38884 ft | 530 kts | 97° |
| 2026-04-30 19:38 | -34.44333 | -67.81636 | 39075 ft | 530 kts | 97° |
| 2026-04-30 19:38 | -34.44865 | -67.77213 | 39237 ft | 531 kts | 97° |
| 2026-04-30 19:38 | -34.45381 | -67.72766 | 39372 ft | 532 kts | 96° |
| 2026-04-30 19:39 | -34.45887 | -67.68324 | 39540 ft | 533 kts | 96° |
| 2026-04-30 19:39 | -34.46405 | -67.63875 | 39681 ft | 534 kts | 97° |
| 2026-04-30 19:39 | -34.46927 | -67.59421 | 39797 ft | 535 kts | 96° |
| 2026-04-30 19:39 | -34.47437 | -67.55002 | 39951 ft | 536 kts | 96° |
| 2026-04-30 19:40 | -34.47947 | -67.50522 | 40118 ft | 536 kts | 96° |
| 2026-04-30 19:40 | -34.48459 | -67.46044 | 40255 ft | 537 kts | 96° |
| 2026-04-30 19:40 | -34.48975 | -67.41542 | 40399 ft | 538 kts | 97° |
| 2026-04-30 19:40 | -34.49487 | -67.37056 | 40631 ft | 537 kts | 96° |
| 2026-04-30 19:41 | -34.49993 | -67.32577 | 40798 ft | 537 kts | 96° |
| 2026-04-30 19:41 | -34.50500 | -67.28081 | 40811 ft | 541 kts | 96° |
| 2026-04-30 19:41 | -34.51520 | -67.19025 | 40805 ft | 540 kts | 96° |
| 2026-04-30 19:42 | -34.52525 | -67.10011 | 40809 ft | 538 kts | 96° |
| 2026-04-30 19:42 | -34.53523 | -67.01013 | 40808 ft | 538 kts | 96° |
| 2026-04-30 19:43 | -34.54513 | -66.92025 | 40806 ft | 538 kts | 96° |
| 2026-04-30 19:44 | -34.55980 | -66.78584 | 40807 ft | 538 kts | 96° |
| 2026-04-30 19:44 | -34.56955 | -66.69571 | 40807 ft | 538 kts | 96° |
| 2026-04-30 19:45 | -34.57922 | -66.60570 | 40807 ft | 538 kts | 96° |
| 2026-04-30 19:45 | -34.58884 | -66.51554 | 40819 ft | 539 kts | 96° |
| 2026-04-30 19:46 | -34.59841 | -66.42520 | 40820 ft | 540 kts | 96° |
| 2026-04-30 19:46 | -34.60794 | -66.33461 | 40824 ft | 541 kts | 96° |
| 2026-04-30 19:47 | -34.61732 | -66.24477 | 40825 ft | 539 kts | 96° |
| 2026-04-30 19:47 | -34.62668 | -66.15445 | 40825 ft | 538 kts | 96° |
| 2026-04-30 19:48 | -34.63595 | -66.06437 | 40824 ft | 536 kts | 96° |
| 2026-04-30 19:48 | -34.64514 | -65.97434 | 40825 ft | 537 kts | 96° |
| 2026-04-30 19:49 | -34.65424 | -65.88459 | 40828 ft | 540 kts | 96° |
| 2026-04-30 19:49 | -34.66791 | -65.74853 | 40832 ft | 541 kts | 95° |
| 2026-04-30 19:50 | -34.67687 | -65.65766 | 40835 ft | 543 kts | 95° |
| 2026-04-30 19:50 | -34.68589 | -65.56651 | 40837 ft | 543 kts | 95° |
| 2026-04-30 19:51 | -34.69479 | -65.47553 | 40835 ft | 542 kts | 95° |
| 2026-04-30 19:51 | -34.70362 | -65.38463 | 40833 ft | 542 kts | 95° |
| 2026-04-30 19:52 | -34.71092 | -65.30902 | 40832 ft | 542 kts | 95° |
| 2026-04-30 19:52 | -34.72105 | -65.20305 | 40832 ft | 544 kts | 95° |
| 2026-04-30 19:53 | -34.72973 | -65.11160 | 40834 ft | 545 kts | 95° |
| 2026-04-30 19:53 | -34.73836 | -65.01978 | 40832 ft | 546 kts | 95° |
| 2026-04-30 19:54 | -34.74692 | -64.92812 | 40832 ft | 545 kts | 95° |
| 2026-04-30 19:54 | -34.75538 | -64.83663 | 40821 ft | 544 kts | 95° |
| 2026-04-30 19:55 | -34.76373 | -64.74572 | 40819 ft | 544 kts | 95° |
| 2026-04-30 19:55 | -34.77206 | -64.65416 | 40819 ft | 545 kts | 95° |
| 2026-04-30 19:56 | -34.78044 | -64.56249 | 40819 ft | 545 kts | 95° |
| 2026-04-30 19:56 | -34.78879 | -64.47094 | 40819 ft | 545 kts | 95° |
| 2026-04-30 19:57 | -34.79703 | -64.37933 | 40819 ft | 545 kts | 95° |
| 2026-04-30 19:57 | -34.80524 | -64.28767 | 40819 ft | 545 kts | 95° |
| 2026-04-30 19:58 | -34.81335 | -64.19601 | 40819 ft | 545 kts | 95° |
| 2026-04-30 19:58 | -34.82142 | -64.10423 | 40820 ft | 545 kts | 95° |
| 2026-04-30 19:59 | -34.82936 | -64.01299 | 40821 ft | 546 kts | 95° |
| 2026-04-30 20:00 | -34.84122 | -63.87500 | 40821 ft | 547 kts | 94° |
| 2026-04-30 20:00 | -34.84907 | -63.78266 | 40824 ft | 549 kts | 94° |
| 2026-04-30 20:01 | -34.86070 | -63.64408 | 40824 ft | 548 kts | 95° |
| 2026-04-30 20:01 | -34.86836 | -63.55182 | 40822 ft | 547 kts | 94° |
| 2026-04-30 20:02 | -34.87854 | -63.42924 | 40819 ft | 546 kts | 94° |
| 2026-04-30 20:03 | -34.89109 | -63.27565 | 40815 ft | 547 kts | 94° |
| 2026-04-30 20:03 | -34.89857 | -63.18334 | 40817 ft | 548 kts | 94° |
| 2026-04-30 20:04 | -34.90592 | -63.09138 | 40820 ft | 549 kts | 94° |
| 2026-04-30 20:05 | -34.91694 | -62.95214 | 40824 ft | 551 kts | 94° |
| 2026-04-30 20:05 | -34.92779 | -62.81290 | 40823 ft | 549 kts | 94° |
| 2026-04-30 20:06 | -34.93372 | -62.73597 | 40821 ft | 548 kts | 94° |
| 2026-04-30 20:06 | -34.94077 | -62.64348 | 40818 ft | 547 kts | 94° |
| 2026-04-30 20:07 | -34.94766 | -62.55105 | 40816 ft | 549 kts | 94° |
| 2026-04-30 20:08 | -34.95797 | -62.41147 | 40823 ft | 552 kts | 94° |
| 2026-04-30 20:08 | -34.96475 | -62.31805 | 40825 ft | 552 kts | 94° |
| 2026-04-30 20:09 | -34.96833 | -62.22483 | 40828 ft | 550 kts | 91° |
| 2026-04-30 20:09 | -34.97306 | -62.08564 | 40838 ft | 550 kts | 90° |
| 2026-04-30 20:10 | -34.97757 | -61.94575 | 40837 ft | 550 kts | 91° |
| 2026-04-30 20:11 | -34.98180 | -61.80553 | 40848 ft | 552 kts | 91° |
| 2026-04-30 20:11 | -34.98461 | -61.71171 | 40852 ft | 553 kts | 90° |
| 2026-04-30 20:12 | -34.98862 | -61.57185 | 40850 ft | 551 kts | 90° |
| 2026-04-30 20:13 | -34.99110 | -61.47838 | 40854 ft | 550 kts | 90° |
| 2026-04-30 20:13 | -34.99352 | -61.38523 | 40852 ft | 549 kts | 90° |
| 2026-04-30 20:14 | -34.98784 | -61.29281 | 40860 ft | 546 kts | 78° |
| 2026-04-30 20:14 | -34.97724 | -61.20156 | 40869 ft | 539 kts | 82° |
| 2026-04-30 20:15 | -34.97136 | -61.11147 | 40839 ft | 525 kts | 81° |
| 2026-04-30 20:15 | -34.96274 | -61.02411 | 40802 ft | 513 kts | 81° |
| 2026-04-30 20:16 | -34.95596 | -60.93891 | 40686 ft | 502 kts | 81° |
| 2026-04-30 20:16 | -34.95220 | -60.89654 | 40144 ft | 506 kts | 80° |
| 2026-04-30 20:16 | -34.94815 | -60.85359 | 39500 ft | 513 kts | 81° |
| 2026-04-30 20:16 | -34.94430 | -60.81010 | 38880 ft | 519 kts | 81° |
| 2026-04-30 20:17 | -34.94058 | -60.76606 | 38214 ft | 524 kts | 81° |
| 2026-04-30 20:17 | -34.93668 | -60.72164 | 37518 ft | 530 kts | 81° |
| 2026-04-30 20:17 | -34.93256 | -60.67673 | 36818 ft | 535 kts | 81° |
| 2026-04-30 20:17 | -34.92845 | -60.63136 | 36059 ft | 540 kts | 81° |
| 2026-04-30 20:18 | -34.92441 | -60.58563 | 35266 ft | 545 kts | 81° |
| 2026-04-30 20:18 | -34.92028 | -60.53942 | 34425 ft | 550 kts | 81° |
| 2026-04-30 20:18 | -34.91602 | -60.49283 | 33549 ft | 555 kts | 81° |
| 2026-04-30 20:18 | -34.91172 | -60.44585 | 32637 ft | 560 kts | 81° |
| 2026-04-30 20:19 | -34.90744 | -60.39913 | 31693 ft | 565 kts | 81° |
| 2026-04-30 20:19 | -34.90308 | -60.35127 | 30666 ft | 571 kts | 81° |
| 2026-04-30 20:19 | -34.89862 | -60.30297 | 29576 ft | 576 kts | 81° |
| 2026-04-30 20:19 | -34.89402 | -60.25366 | 28464 ft | 581 kts | 81° |
| 2026-04-30 20:20 | -34.88953 | -60.20544 | 27386 ft | 576 kts | 81° |
| 2026-04-30 20:20 | -34.88508 | -60.15750 | 26316 ft | 563 kts | 81° |
| 2026-04-30 20:20 | -34.88070 | -60.11070 | 25285 ft | 551 kts | 81° |
| 2026-04-30 20:20 | -34.87635 | -60.06480 | 24273 ft | 539 kts | 81° |
| 2026-04-30 20:21 | -34.87207 | -60.01982 | 23277 ft | 528 kts | 81° |
| 2026-04-30 20:21 | -34.86790 | -59.97586 | 22323 ft | 518 kts | 81° |
| 2026-04-30 20:21 | -34.86379 | -59.93276 | 21825 ft | 511 kts | 82° |
| 2026-04-30 20:21 | -34.85965 | -59.88966 | 21324 ft | 510 kts | 82° |
| 2026-04-30 20:22 | -34.85551 | -59.84668 | 20478 ft | 513 kts | 82° |
| 2026-04-30 20:22 | -34.85134 | -59.80345 | 19623 ft | 513 kts | 82° |
| 2026-04-30 20:22 | -34.84721 | -59.76059 | 19119 ft | 505 kts | 82° |
| 2026-04-30 20:22 | -34.84311 | -59.71846 | 18625 ft | 497 kts | 82° |
| 2026-04-30 20:23 | -34.83907 | -59.67726 | 18361 ft | 484 kts | 82° |
| 2026-04-30 20:23 | -34.83513 | -59.63689 | 18108 ft | 476 kts | 82° |
| 2026-04-30 20:23 | -34.83121 | -59.59699 | 17856 ft | 475 kts | 82° |
| 2026-04-30 20:23 | -34.82726 | -59.55702 | 17606 ft | 475 kts | 82° |
| 2026-04-30 20:24 | -34.82335 | -59.51745 | 17351 ft | 463 kts | 82° |
| 2026-04-30 20:24 | -34.81954 | -59.47897 | 17095 ft | 452 kts | 82° |
| 2026-04-30 20:24 | -34.81578 | -59.44143 | 16617 ft | 445 kts | 82° |
| 2026-04-30 20:24 | -34.81204 | -59.40400 | 15861 ft | 447 kts | 82° |
| 2026-04-30 20:25 | -34.80481 | -59.33172 | 14086 ft | 411 kts | 82° |
| 2026-04-30 20:25 | -34.80142 | -59.29806 | 13260 ft | 390 kts | 81° |
| 2026-04-30 20:26 | -34.79513 | -59.23602 | 11935 ft | 348 kts | 81° |
| 2026-04-30 20:26 | -34.78946 | -59.18024 | 10718 ft | 318 kts | 81° |
| 2026-04-30 20:26 | -34.78675 | -59.15379 | 10115 ft | 311 kts | 81° |
| 2026-04-30 20:27 | -34.78146 | -59.10218 | 9228 ft | 303 kts | 81° |
| 2026-04-30 20:27 | -34.77628 | -59.05183 | 8501 ft | 298 kts | 81° |
| 2026-04-30 20:28 | -34.77117 | -59.00257 | 7460 ft | 293 kts | 81° |
| 2026-04-30 20:28 | -34.76617 | -58.95399 | 6290 ft | 286 kts | 81° |
| 2026-04-30 20:29 | -34.76123 | -58.90646 | 5073 ft | 280 kts | 82° |
| 2026-04-30 20:30 | -34.76952 | -58.84024 | 4011 ft | 251 kts | 98° |
| 2026-04-30 20:30 | -34.77914 | -58.78038 | 3048 ft | 237 kts | 99° |
| 2026-04-30 20:31 | -34.78891 | -58.72146 | 2320 ft | 227 kts | 103° |
| 2026-04-30 20:32 | -34.79842 | -58.66821 | 1959 ft | 208 kts | 104° |
| 2026-04-30 20:32 | -34.80430 | -58.63612 | 1440 ft | 181 kts | 99° |
| 2026-04-30 20:33 | -34.80686 | -58.62176 | 1211 ft | 167 kts | 99° |
| 2026-04-30 20:33 | -34.81132 | -58.59648 | 772 ft | 143 kts | 99° |
| 2026-04-30 20:33 | -34.81339 | -58.58470 | 596 ft | 142 kts | 100° |
| 2026-04-30 20:34 | -34.81768 | -58.56126 | 263 ft | 138 kts | 100° |
| 2026-04-30 20:34 | -34.82162 | -58.53930 | 88 ft | 111 kts | 101° |
| 2026-04-30 20:35 | -34.82266 | -58.53323 | 87 ft | 35 kts | 102° |
| 2026-04-30 20:35 | -34.82320 | -58.53027 | 88 ft | 32 kts | 102° |
| 2026-04-30 20:35 | -34.82250 | -58.52903 | 88 ft | 9 kts | 348° |
| 2026-04-30 20:36 | -34.82185 | -58.52926 | 87 ft | 11 kts | 343° |
| 2026-04-30 20:36 | -34.82107 | -58.52953 | 86 ft | 13 kts | 345° |
| 2026-04-30 20:36 | -34.82008 | -58.53139 | 82 ft | 16 kts | 273° |
| 2026-04-30 20:37 | -34.82004 | -58.53248 | 84 ft | 4 kts | 310° |
| 2026-04-30 20:37 | -34.81985 | -58.53278 | 81 ft | 6 kts | 303° |
| 2026-04-30 20:37 | -34.81964 | -58.53341 | 85 ft | 10 kts | 287° |
| 2026-04-30 20:37 | -34.81945 | -58.53430 | 81 ft | 12 kts | 283° |
| 2026-04-30 20:38 | -34.81924 | -58.53541 | 86 ft | 14 kts | 283° |
| 2026-04-30 20:38 | -34.81876 | -58.53640 | 86 ft | 14 kts | 326° |
| 2026-04-30 20:38 | -34.81791 | -58.53695 | 85 ft | 14 kts | 334° |
| 2026-04-30 20:39 | -34.81694 | -58.53773 | 81 ft | 5 kts | 299° |
| 2026-04-30 20:39 | -34.81672 | -58.53811 | 81 ft | 6 kts | 315° |
| 2026-04-30 20:39 | -34.81638 | -58.53847 | 81 ft | 7 kts | 321° |
| 2026-04-30 20:40 | -34.81573 | -58.53909 | 81 ft | 2 kts | 322° |
| 2026-04-30 20:40 | -34.81565 | -58.53917 | 81 ft | 0 kts | 322° |